Time,TemperatureF,DewpointF,PressureIn,WindDirection,WindDirectionDegrees,WindSpeedMPH,WindSpeedGustMPH,Humidity,HourlyPrecipIn,Conditions,Clouds,dailyrainin,SoftwareType,DateUTC
2013-09-21 00:01:00,67.6,66.4,29.69,NW,323,0.0,3.0,96,0.03,,---,1.92,VWS V14.01,2013-09-21 05:01:00,
2013-09-21 00:06:00,67.6,66.4,29.69,NW,323,0.0,2.0,96,0.01,,---,0.00,VWS V14.01,2013-09-21 05:06:00,
2013-09-21 00:11:00,67.6,66.4,29.69,NW,323,0.0,3.0,96,0.01,,---,0.00,VWS V14.01,2013-09-21 05:11:00,
2013-09-21 00:16:00,67.6,66.4,29.68,NW,323,0.0,3.0,96,0.01,,---,0.00,VWS V14.01,2013-09-21 05:16:00,
2013-09-21 00:21:00,67.6,66.4,29.68,NW,323,0.0,3.0,96,0.01,,---,0.00,VWS V14.01,2013-09-21 05:21:00,
2013-09-21 00:26:00,67.6,66.4,29.68,NW,324,0.0,3.0,96,0.01,,---,0.00,VWS V14.01,2013-09-21 05:26:00,
2013-09-21 00:31:00,67.5,66.3,29.68,NW,324,0.0,3.0,96,0.02,,---,0.01,VWS V14.01,2013-09-21 05:31:00,
2013-09-21 00:36:00,67.6,66.4,29.68,NW,320,0.0,3.0,96,0.01,,---,0.01,VWS V14.01,2013-09-21 05:36:00,
2013-09-21 00:41:00,67.6,66.4,29.68,NW,320,0.0,3.0,96,0.01,,---,0.01,VWS V14.01,2013-09-21 05:41:00,
2013-09-21 00:46:00,67.6,66.4,29.68,NW,320,0.0,3.0,96,0.01,,---,0.01,VWS V14.01,2013-09-21 05:46:00,
2013-09-21 00:51:00,67.6,66.4,29.68,NW,324,0.0,3.0,96,0.01,,---,0.01,VWS V14.01,2013-09-21 05:51:00,
2013-09-21 00:56:00,67.6,66.4,29.68,NW,321,0.0,3.0,96,0.01,,---,0.01,VWS V14.01,2013-09-21 05:56:00,
2013-09-21 01:01:00,67.6,66.4,29.68,NW,313,0.0,3.0,96,0.01,,---,0.01,VWS V14.01,2013-09-21 06:01:00,
2013-09-21 01:06:00,67.6,66.4,29.68,NW,311,0.0,3.0,96,0.02,,---,0.02,VWS V14.01,2013-09-21 06:06:00,
2013-09-21 01:11:00,67.5,66.3,29.68,WNW,298,0.0,4.0,96,0.02,,---,0.02,VWS V14.01,2013-09-21 06:11:00,
2013-09-21 01:16:00,67.5,66.3,29.68,WNW,300,0.0,4.0,96,0.02,,---,0.02,VWS V14.01,2013-09-21 06:16:00,
2013-09-21 01:21:00,67.5,66.3,29.68,WNW,293,2.0,4.0,96,0.02,,---,0.02,VWS V14.01,2013-09-21 06:21:00,
2013-09-21 01:26:00,67.5,66.3,29.68,WNW,293,1.0,4.0,96,0.02,,---,0.02,VWS V14.01,2013-09-21 06:26:00,
2013-09-21 01:31:00,67.5,66.6,29.68,WNW,293,0.0,4.0,97,0.02,,---,0.02,VWS V14.01,2013-09-21 06:31:00,
2013-09-21 01:36:00,67.5,66.3,29.68,WNW,293,0.0,2.0,96,0.02,,---,0.03,VWS V14.01,2013-09-21 06:36:00,
2013-09-21 01:41:00,67.6,66.7,29.68,WNW,293,0.0,2.0,97,0.02,,---,0.03,VWS V14.01,2013-09-21 06:41:00,
2013-09-21 01:46:00,67.6,66.7,29.67,WNW,293,0.0,2.0,97,0.02,,---,0.03,VWS V14.01,2013-09-21 06:46:00,
2013-09-21 01:51:00,67.6,66.7,29.67,NW,309,2.0,5.0,97,0.05,,---,0.06,VWS V14.01,2013-09-21 06:51:00,
2013-09-21 01:56:00,67.6,66.7,29.67,North,355,3.0,6.0,97,0.07,,---,0.08,VWS V14.01,2013-09-21 06:56:00,
2013-09-21 02:01:00,67.5,66.6,29.67,North,360,1.0,6.0,97,0.07,,---,0.08,VWS V14.01,2013-09-21 07:01:00,
2013-09-21 02:06:00,67.2,66.3,29.67,NNW,327,0.0,6.0,97,0.08,,---,0.09,VWS V14.01,2013-09-21 07:06:00,
2013-09-21 02:11:00,67.0,66.1,29.67,NW,308,1.0,9.0,97,0.08,,---,0.09,VWS V14.01,2013-09-21 07:11:00,
2013-09-21 02:16:00,66.0,64.8,29.68,NNW,330,0.0,17.0,96,0.08,,---,0.09,VWS V14.01,2013-09-21 07:16:00,
2013-09-21 02:21:00,65.2,64.0,29.68,North,360,0.0,17.0,96,0.08,,---,0.09,VWS V14.01,2013-09-21 07:21:00,
2013-09-21 02:26:00,64.5,63.3,29.68,NE,51,2.0,17.0,96,0.08,,---,0.09,VWS V14.01,2013-09-21 07:26:00,
2013-09-21 02:31:00,64.2,63.0,29.68,NNE,32,1.0,17.0,96,0.08,,---,0.09,VWS V14.01,2013-09-21 07:31:00,
2013-09-21 02:36:00,64.0,62.8,29.68,West,277,2.0,9.0,96,0.07,,---,0.09,VWS V14.01,2013-09-21 07:36:00,
2013-09-21 02:41:00,63.8,62.6,29.68,NW,325,2.0,9.0,96,0.07,,---,0.09,VWS V14.01,2013-09-21 07:41:00,
2013-09-21 02:46:00,63.7,62.5,29.68,North,350,1.0,9.0,96,0.07,,---,0.09,VWS V14.01,2013-09-21 07:46:00,
2013-09-21 02:51:00,63.7,62.5,29.68,NNW,340,0.0,9.0,96,0.07,,---,0.09,VWS V14.01,2013-09-21 07:51:00,
2013-09-21 02:56:00,63.7,62.2,29.68,NW,315,5.0,9.0,95,0.07,,---,0.09,VWS V14.01,2013-09-21 07:56:00,
2013-09-21 03:01:00,63.6,62.2,29.68,NNE,19,0.0,9.0,95,0.07,,---,0.09,VWS V14.01,2013-09-21 08:01:00,
2013-09-21 03:06:00,63.6,62.2,29.68,NNW,348,3.0,6.0,95,0.01,,---,0.09,VWS V14.01,2013-09-21 08:06:00,
2013-09-21 03:11:00,63.7,62.2,29.68,WNW,292,1.0,6.0,95,0.01,,---,0.09,VWS V14.01,2013-09-21 08:11:00,
2013-09-21 03:16:00,63.7,62.2,29.68,North,360,3.0,6.0,95,0.01,,---,0.09,VWS V14.01,2013-09-21 08:16:00,
2013-09-21 03:21:00,63.7,62.2,29.68,North,360,3.0,6.0,95,0.01,,---,0.09,VWS V14.01,2013-09-21 08:21:00,
2013-09-21 03:26:00,63.7,62.2,29.68,NE,36,0.0,6.0,95,0.01,,---,0.09,VWS V14.01,2013-09-21 08:26:00,
2013-09-21 03:31:00,63.7,62.2,29.68,NNW,336,1.0,6.0,95,0.01,,---,0.09,VWS V14.01,2013-09-21 08:31:00,
2013-09-21 03:36:00,63.8,62.3,29.68,NNW,333,1.0,6.0,95,0.00,,---,0.09,VWS V14.01,2013-09-21 08:36:00,
2013-09-21 03:41:00,63.8,62.3,29.68,NW,317,1.0,6.0,95,0.00,,---,0.09,VWS V14.01,2013-09-21 08:41:00,
2013-09-21 03:46:00,63.8,62.3,29.68,West,281,4.0,9.0,95,0.00,,---,0.09,VWS V14.01,2013-09-21 08:46:00,
2013-09-21 03:51:00,63.6,61.8,29.68,NW,318,1.0,9.0,94,0.00,,---,0.09,VWS V14.01,2013-09-21 08:51:00,
2013-09-21 03:56:00,63.5,61.8,29.68,NNW,348,1.0,9.0,94,0.00,,---,0.09,VWS V14.01,2013-09-21 08:56:00,
2013-09-21 04:01:00,63.4,61.3,29.69,WNW,298,2.0,9.0,93,0.00,,---,0.09,VWS V14.01,2013-09-21 09:01:00,
2013-09-21 04:06:00,63.3,61.2,29.69,NNE,12,0.0,3.0,93,0.00,,---,0.09,VWS V14.01,2013-09-21 09:06:00,
2013-09-21 04:11:00,63.2,61.2,29.69,WNW,301,0.0,10.0,93,0.00,,---,0.09,VWS V14.01,2013-09-21 09:11:00,
2013-09-21 04:16:00,63.1,60.7,29.69,NW,326,4.0,10.0,92,0.00,,---,0.09,VWS V14.01,2013-09-21 09:16:00,
2013-09-21 04:21:00,63.1,60.7,29.69,West,267,3.0,10.0,92,0.00,,---,0.09,VWS V14.01,2013-09-21 09:21:00,
2013-09-21 04:26:00,62.9,60.5,29.69,North,9,4.0,10.0,92,0.00,,---,0.09,VWS V14.01,2013-09-21 09:26:00,
2013-09-21 04:31:00,62.9,60.2,29.69,WNW,302,0.0,10.0,91,0.00,,---,0.09,VWS V14.01,2013-09-21 09:31:00,
2013-09-21 04:36:00,62.8,60.1,29.69,North,355,0.0,5.0,91,0.00,,---,0.09,VWS V14.01,2013-09-21 09:36:00,
2013-09-21 04:41:00,62.7,60.0,29.69,WNW,288,0.0,5.0,91,0.00,,---,0.09,VWS V14.01,2013-09-21 09:41:00,
2013-09-21 04:46:00,62.6,59.9,29.70,WNW,300,0.0,6.0,91,0.00,,---,0.09,VWS V14.01,2013-09-21 09:46:00,
2013-09-21 04:51:00,62.5,59.5,29.70,NNW,337,3.0,6.0,90,0.00,,---,0.09,VWS V14.01,2013-09-21 09:51:00,
2013-09-21 04:56:00,62.5,59.5,29.70,WNW,294,0.0,6.0,90,0.00,,---,0.09,VWS V14.01,2013-09-21 09:56:00,
2013-09-21 05:01:00,62.5,59.5,29.70,NNW,328,2.0,6.0,90,0.00,,---,0.09,VWS V14.01,2013-09-21 10:01:00,
2013-09-21 05:06:00,62.4,59.4,29.70,NW,318,0.0,2.0,90,0.00,,---,0.09,VWS V14.01,2013-09-21 10:06:00,
2013-09-21 05:11:00,62.2,59.2,29.70,North,355,6.0,6.0,90,0.00,,---,0.09,VWS V14.01,2013-09-21 10:11:00,
2013-09-21 05:16:00,62.0,59.0,29.70,NNW,327,2.0,7.0,90,0.00,,---,0.09,VWS V14.01,2013-09-21 10:16:00,
2013-09-21 05:21:00,61.9,58.6,29.70,North,351,3.0,7.0,89,0.00,,---,0.09,VWS V14.01,2013-09-21 10:21:00,
2013-09-21 05:26:00,61.8,58.5,29.70,NW,312,0.0,7.0,89,0.00,,---,0.09,VWS V14.01,2013-09-21 10:26:00,
2013-09-21 05:31:00,61.6,58.3,29.71,North,355,3.0,7.0,89,0.00,,---,0.09,VWS V14.01,2013-09-21 10:31:00,
2013-09-21 05:36:00,61.4,57.8,29.71,West,273,0.0,7.0,88,0.00,,---,0.09,VWS V14.01,2013-09-21 10:36:00,
2013-09-21 05:41:00,61.3,57.7,29.71,North,360,0.0,7.0,88,0.00,,---,0.09,VWS V14.01,2013-09-21 10:41:00,
2013-09-21 05:46:00,61.1,57.5,29.72,NNE,13,3.0,7.0,88,0.00,,---,0.09,VWS V14.01,2013-09-21 10:46:00,
2013-09-21 05:51:00,61.0,57.1,29.72,NW,319,0.0,7.0,87,0.00,,---,0.09,VWS V14.01,2013-09-21 10:51:00,
2013-09-21 05:56:00,60.9,57.0,29.72,NNW,339,3.0,9.0,87,0.00,,---,0.09,VWS V14.01,2013-09-21 10:56:00,
2013-09-21 06:01:00,60.8,56.9,29.72,NW,326,0.0,9.0,87,0.00,,---,0.09,VWS V14.01,2013-09-21 11:01:00,
2013-09-21 06:06:00,60.7,56.8,29.72,NNE,22,0.0,6.0,87,0.00,,---,0.09,VWS V14.01,2013-09-21 11:06:00,
2013-09-21 06:11:00,60.5,56.6,29.72,NW,321,0.0,6.0,87,0.00,,---,0.09,VWS V14.01,2013-09-21 11:11:00,
2013-09-21 06:16:00,60.4,56.5,29.72,WNW,294,0.0,6.0,87,0.00,,---,0.09,VWS V14.01,2013-09-21 11:16:00,
2013-09-21 06:21:00,60.3,56.7,29.72,North,351,0.0,6.0,88,0.00,,---,0.09,VWS V14.01,2013-09-21 11:21:00,
2013-09-21 06:26:00,60.1,56.5,29.72,WNW,292,2.0,6.0,88,0.00,,---,0.09,VWS V14.01,2013-09-21 11:26:00,
2013-09-21 06:31:00,60.0,56.4,29.73,NW,310,0.0,7.0,88,0.00,,---,0.09,VWS V14.01,2013-09-21 11:31:00,
2013-09-21 06:36:00,59.9,56.0,29.73,North,355,4.0,7.0,87,0.00,,---,0.09,VWS V14.01,2013-09-21 11:36:00,
2013-09-21 06:41:00,59.8,55.9,29.73,NW,323,1.0,7.0,87,0.00,,---,0.09,VWS V14.01,2013-09-21 11:41:00,
2013-09-21 06:46:00,59.6,55.7,29.73,NE,36,0.0,7.0,87,0.00,,---,0.09,VWS V14.01,2013-09-21 11:46:00,
2013-09-21 06:51:00,59.5,55.6,29.73,North,360,3.0,7.0,87,0.00,,---,0.09,VWS V14.01,2013-09-21 11:51:00,
2013-09-21 06:56:00,59.3,55.4,29.73,NNW,344,2.0,7.0,87,0.00,,---,0.09,VWS V14.01,2013-09-21 11:56:00,
2013-09-21 07:01:00,59.1,55.2,29.75,North,5,0.0,7.0,87,0.00,,---,0.09,VWS V14.01,2013-09-21 12:01:00,
2013-09-21 07:06:00,59.0,55.1,29.75,WNW,289,0.0,5.0,87,0.00,,---,0.09,VWS V14.01,2013-09-21 12:06:00,
2013-09-21 07:11:00,59.0,55.1,29.75,NE,54,0.0,6.0,87,0.00,,---,0.09,VWS V14.01,2013-09-21 12:11:00,
2013-09-21 07:16:00,59.0,55.1,29.75,WNW,300,2.0,6.0,87,0.00,,---,0.09,VWS V14.01,2013-09-21 12:16:00,
2013-09-21 07:21:00,59.0,55.1,29.75,North,355,2.0,6.0,87,0.00,,---,0.09,VWS V14.01,2013-09-21 12:21:00,
2013-09-21 07:26:00,59.0,55.1,29.75,NNW,335,0.0,6.0,87,0.00,,---,0.09,VWS V14.01,2013-09-21 12:26:00,
2013-09-21 07:31:00,59.0,55.1,29.76,NNW,348,2.0,6.0,87,0.00,,---,0.09,VWS V14.01,2013-09-21 12:31:00,
2013-09-21 07:36:00,58.9,55.0,29.76,NW,308,2.0,3.0,87,0.00,,---,0.09,VWS V14.01,2013-09-21 12:36:00,
2013-09-21 07:41:00,59.0,55.1,29.76,North,5,0.0,6.0,87,0.00,,---,0.09,VWS V14.01,2013-09-21 12:41:00,
2013-09-21 07:46:00,59.0,55.1,29.76,North,360,0.0,6.0,87,0.00,,---,0.09,VWS V14.01,2013-09-21 12:46:00,
2013-09-21 07:51:00,59.0,55.1,29.76,WNW,298,2.0,6.0,87,0.00,,---,0.09,VWS V14.01,2013-09-21 12:51:00,
2013-09-21 07:56:00,59.0,55.1,29.76,NNW,345,2.0,6.0,87,0.00,,---,0.09,VWS V14.01,2013-09-21 12:56:00,
2013-09-21 08:01:00,59.0,55.1,29.77,NNW,346,0.0,6.0,87,0.00,,---,0.09,VWS V14.01,2013-09-21 13:01:00,
2013-09-21 08:06:00,59.0,55.1,29.77,WNW,298,0.0,5.0,87,0.00,,---,0.09,VWS V14.01,2013-09-21 13:06:00,
2013-09-21 08:11:00,59.0,55.1,29.77,NE,38,0.0,5.0,87,0.00,,---,0.09,VWS V14.01,2013-09-21 13:11:00,
2013-09-21 08:16:00,59.4,55.5,29.77,North,5,1.0,5.0,87,0.00,,---,0.09,VWS V14.01,2013-09-21 13:16:00,
2013-09-21 08:21:00,59.6,55.4,29.77,North,9,0.0,9.0,86,0.00,,---,0.09,VWS V14.01,2013-09-21 13:21:00,
2013-09-21 08:26:00,59.7,55.5,29.77,NNW,338,0.0,9.0,86,0.00,,---,0.09,VWS V14.01,2013-09-21 13:26:00,
2013-09-21 08:31:00,59.9,55.4,29.77,NNW,340,0.0,9.0,85,0.00,,---,0.09,VWS V14.01,2013-09-21 13:31:00,
2013-09-21 08:36:00,60.2,55.7,29.77,North,355,0.0,6.0,85,0.00,,---,0.09,VWS V14.01,2013-09-21 13:36:00,
2013-09-21 08:41:00,60.6,56.1,29.77,NNW,339,3.0,6.0,85,0.00,,---,0.09,VWS V14.01,2013-09-21 13:41:00,
2013-09-21 08:46:00,60.8,55.6,29.77,NW,325,1.0,7.0,83,0.00,,---,0.09,VWS V14.01,2013-09-21 13:46:00,
2013-09-21 08:51:00,61.3,56.1,29.77,NNE,26,0.0,11.0,83,0.00,,---,0.09,VWS V14.01,2013-09-21 13:51:00,
2013-09-21 08:56:00,61.5,55.6,29.77,North,355,0.0,11.0,81,0.00,,---,0.09,VWS V14.01,2013-09-21 13:56:00,
2013-09-21 09:01:00,61.6,55.4,29.77,NE,43,0.0,11.0,80,0.00,,---,0.09,VWS V14.01,2013-09-21 14:01:00,
2013-09-21 09:06:00,61.5,55.3,29.77,North,5,1.0,10.0,80,0.00,,---,0.09,VWS V14.01,2013-09-21 14:06:00,
2013-09-21 09:11:00,61.6,55.4,29.77,NNW,346,3.0,10.0,80,0.00,,---,0.09,VWS V14.01,2013-09-21 14:11:00,
2013-09-21 09:16:00,61.8,55.6,29.77,North,350,1.0,10.0,80,0.00,,---,0.09,VWS V14.01,2013-09-21 14:16:00,
2013-09-21 09:21:00,62.1,55.9,29.77,NNE,32,2.0,11.0,80,0.00,,---,0.09,VWS V14.01,2013-09-21 14:21:00,
2013-09-21 09:26:00,62.4,55.5,29.77,NE,51,2.0,11.0,78,0.00,,---,0.09,VWS V14.01,2013-09-21 14:26:00,
2013-09-21 09:31:00,62.6,55.3,29.78,NE,38,3.0,13.0,77,0.00,,---,0.09,VWS V14.01,2013-09-21 14:31:00,
2013-09-21 09:36:00,63.0,55.7,29.78,NNE,25,4.0,12.0,77,0.00,,---,0.09,VWS V14.01,2013-09-21 14:36:00,
2013-09-21 09:41:00,63.2,55.5,29.78,NE,42,0.0,12.0,76,0.00,,---,0.09,VWS V14.01,2013-09-21 14:41:00,
2013-09-21 09:46:00,63.4,55.7,29.78,NNW,336,0.0,12.0,76,0.00,,---,0.09,VWS V14.01,2013-09-21 14:46:00,
2013-09-21 09:51:00,63.7,56.0,29.78,NNE,14,2.0,12.0,76,0.00,,---,0.09,VWS V14.01,2013-09-21 14:51:00,
2013-09-21 09:56:00,63.8,55.7,29.78,North,360,0.0,12.0,75,0.00,,---,0.09,VWS V14.01,2013-09-21 14:56:00,
2013-09-21 10:01:00,64.0,56.3,29.77,NE,55,0.0,12.0,76,0.00,,---,0.09,VWS V14.01,2013-09-21 15:01:00,
2013-09-21 10:06:00,64.2,56.8,29.77,North,355,1.0,5.0,77,0.00,,---,0.09,VWS V14.01,2013-09-21 15:06:00,
2013-09-21 10:11:00,64.6,56.5,29.77,North,355,0.0,7.0,75,0.00,,---,0.09,VWS V14.01,2013-09-21 15:11:00,
2013-09-21 10:16:00,64.8,56.3,29.77,North,5,3.0,7.0,74,0.00,,---,0.09,VWS V14.01,2013-09-21 15:16:00,
2013-09-21 10:21:00,65.1,55.9,29.77,North,355,1.0,10.0,72,0.00,,---,0.09,VWS V14.01,2013-09-21 15:21:00,
2013-09-21 10:26:00,65.3,55.7,29.77,WNW,300,6.0,10.0,71,0.00,,---,0.09,VWS V14.01,2013-09-21 15:26:00,
2013-09-21 10:31:00,65.5,55.1,29.77,NNW,347,2.0,13.0,69,0.00,,---,0.09,VWS V14.01,2013-09-21 15:31:00,
2013-09-21 10:36:00,66.0,55.2,29.77,North,9,0.0,6.0,68,0.00,,---,0.09,VWS V14.01,2013-09-21 15:36:00,
2013-09-21 10:41:00,66.1,54.0,29.77,North,9,2.0,16.0,65,0.00,,---,0.09,VWS V14.01,2013-09-21 15:41:00,
2013-09-21 10:46:00,66.3,53.8,29.77,North,355,2.0,16.0,64,0.00,,---,0.09,VWS V14.01,2013-09-21 15:46:00,
2013-09-21 10:51:00,66.5,53.5,29.77,NW,323,5.0,16.0,63,0.00,,---,0.09,VWS V14.01,2013-09-21 15:51:00,
2013-09-21 10:56:00,66.9,53.9,29.77,North,360,1.0,16.0,63,0.00,,---,0.09,VWS V14.01,2013-09-21 15:56:00,
2013-09-21 11:01:00,67.2,53.8,29.77,WNW,302,6.0,16.0,62,0.00,,---,0.09,VWS V14.01,2013-09-21 16:01:00,
2013-09-21 11:06:00,67.3,53.4,29.77,WNW,292,8.0,14.0,61,0.00,,---,0.09,VWS V14.01,2013-09-21 16:06:00,
2013-09-21 11:11:00,67.3,53.8,29.77,NNW,342,1.0,14.0,62,0.00,,---,0.09,VWS V14.01,2013-09-21 16:11:00,
2013-09-21 11:16:00,67.4,53.9,29.77,North,11,6.0,14.0,62,0.00,,---,0.09,VWS V14.01,2013-09-21 16:16:00,
2013-09-21 11:21:00,67.6,53.2,29.77,North,360,5.0,14.0,60,0.00,,---,0.09,VWS V14.01,2013-09-21 16:21:00,
2013-09-21 11:26:00,67.9,53.1,29.77,North,355,1.0,14.0,59,0.00,,---,0.09,VWS V14.01,2013-09-21 16:26:00,
2013-09-21 11:31:00,68.1,53.7,29.77,NE,51,5.0,14.0,60,0.00,,---,0.09,VWS V14.01,2013-09-21 16:31:00,
2013-09-21 11:37:00,68.0,54.1,29.77,North,351,3.0,11.0,61,0.00,,---,0.09,VWS V14.01,2013-09-21 16:37:00,
2013-09-21 11:42:00,68.1,54.6,29.77,ENE,74,6.0,11.0,62,0.00,,---,0.09,VWS V14.01,2013-09-21 16:42:00,
2013-09-21 11:47:00,68.2,54.2,29.77,NNE,26,3.0,11.0,61,0.00,,---,0.09,VWS V14.01,2013-09-21 16:47:00,
2013-09-21 11:52:00,68.5,54.5,29.77,West,273,1.0,12.0,61,0.00,,---,0.09,VWS V14.01,2013-09-21 16:52:00,
2013-09-21 11:57:00,68.6,52.8,29.77,West,269,10.0,15.0,57,0.00,,---,0.09,VWS V14.01,2013-09-21 16:57:00,
2013-09-21 12:02:00,68.2,52.9,29.77,North,360,4.0,15.0,58,0.00,,---,0.09,VWS V14.01,2013-09-21 17:02:00,
2013-09-21 12:07:00,68.4,52.6,29.77,West,264,2.0,17.0,57,0.00,,---,0.09,VWS V14.01,2013-09-21 17:07:00,
2013-09-21 12:12:00,68.5,53.6,29.77,NNE,20,5.0,17.0,59,0.00,,---,0.09,VWS V14.01,2013-09-21 17:12:00,
2013-09-21 12:17:00,68.7,53.3,29.76,WNW,288,8.0,17.0,58,0.00,,---,0.09,VWS V14.01,2013-09-21 17:17:00,
2013-09-21 12:22:00,69.3,53.4,29.76,West,269,2.0,17.0,57,0.00,,---,0.09,VWS V14.01,2013-09-21 17:22:00,
2013-09-21 12:27:00,69.6,54.2,29.76,WNW,292,7.0,17.0,58,0.00,,---,0.09,VWS V14.01,2013-09-21 17:27:00,
2013-09-21 12:32:00,69.4,53.5,29.76,WNW,286,7.0,17.0,57,0.00,,---,0.09,VWS V14.01,2013-09-21 17:32:00,
2013-09-21 12:37:00,69.2,53.3,29.76,NW,309,7.0,10.0,57,0.00,,---,0.09,VWS V14.01,2013-09-21 17:37:00,
2013-09-21 12:42:00,69.6,54.2,29.76,North,349,4.0,10.0,58,0.00,,---,0.09,VWS V14.01,2013-09-21 17:42:00,
2013-09-21 12:47:00,69.9,53.5,29.76,NW,319,7.0,10.0,56,0.00,,---,0.09,VWS V14.01,2013-09-21 17:47:00,
2013-09-21 12:52:00,70.0,53.6,29.76,NE,56,4.0,11.0,56,0.00,,---,0.09,VWS V14.01,2013-09-21 17:52:00,
2013-09-21 12:57:00,70.3,54.4,29.76,North,5,5.0,11.0,57,0.00,,---,0.09,VWS V14.01,2013-09-21 17:57:00,
2013-09-21 13:02:00,70.5,53.6,29.76,WNW,294,1.0,12.0,55,0.00,,---,0.09,VWS V14.01,2013-09-21 18:02:00,
2013-09-21 13:07:00,70.6,53.7,29.76,NNE,22,5.0,7.0,55,0.00,,---,0.09,VWS V14.01,2013-09-21 18:07:00,
2013-09-21 13:12:00,70.4,53.0,29.76,NE,43,5.0,12.0,54,0.00,,---,0.09,VWS V14.01,2013-09-21 18:12:00,
2013-09-21 13:17:00,70.4,53.0,29.75,WNW,290,5.0,15.0,54,0.00,,---,0.09,VWS V14.01,2013-09-21 18:17:00,
2013-09-21 13:22:00,70.6,53.2,29.75,North,5,4.0,15.0,54,0.00,,---,0.09,VWS V14.01,2013-09-21 18:22:00,
2013-09-21 13:27:00,70.9,54.4,29.75,North,11,1.0,15.0,56,0.00,,---,0.09,VWS V14.01,2013-09-21 18:27:00,
2013-09-21 13:32:00,71.3,54.3,29.74,NNW,336,7.0,15.0,55,0.00,,---,0.09,VWS V14.01,2013-09-21 18:32:00,
2013-09-21 13:37:00,71.5,54.5,29.74,WNW,296,9.0,10.0,55,0.00,,---,0.09,VWS V14.01,2013-09-21 18:37:00,
2013-09-21 13:42:00,71.3,54.8,29.74,NNE,23,3.0,11.0,56,0.00,,---,0.09,VWS V14.01,2013-09-21 18:42:00,
2013-09-21 13:47:00,71.5,54.5,29.74,NNW,342,1.0,11.0,55,0.00,,---,0.09,VWS V14.01,2013-09-21 18:47:00,
2013-09-21 13:52:00,71.6,54.6,29.74,WNW,288,2.0,11.0,55,0.00,,---,0.09,VWS V14.01,2013-09-21 18:52:00,
2013-09-21 13:57:00,71.5,54.5,29.74,ENE,59,1.0,11.0,55,0.00,,---,0.09,VWS V14.01,2013-09-21 18:57:00,
2013-09-21 14:02:00,71.7,54.2,29.74,NNW,346,3.0,11.0,54,0.00,,---,0.09,VWS V14.01,2013-09-21 19:02:00,
2013-09-21 14:07:00,72.0,55.0,29.74,NE,40,0.0,7.0,55,0.00,,---,0.09,VWS V14.01,2013-09-21 19:07:00,
2013-09-21 14:12:00,72.6,55.0,29.74,NW,319,0.0,7.0,54,0.00,,---,0.09,VWS V14.01,2013-09-21 19:12:00,
2013-09-21 14:17:00,72.6,55.0,29.73,NE,50,7.0,10.0,54,0.00,,---,0.09,VWS V14.01,2013-09-21 19:17:00,
2013-09-21 14:22:00,72.7,55.1,29.73,North,350,0.0,10.0,54,0.00,,---,0.09,VWS V14.01,2013-09-21 19:22:00,
2013-09-21 14:27:00,72.9,55.3,29.73,WNW,286,5.0,10.0,54,0.00,,---,0.09,VWS V14.01,2013-09-21 19:27:00,
2013-09-21 14:32:00,72.5,54.4,29.73,WNW,296,6.0,12.0,53,0.00,,---,0.09,VWS V14.01,2013-09-21 19:32:00,
2013-09-21 14:37:00,71.8,54.3,29.73,West,270,3.0,13.0,54,0.00,,---,0.09,VWS V14.01,2013-09-21 19:37:00,
2013-09-21 14:42:00,71.4,54.4,29.73,WNW,302,1.0,13.0,55,0.00,,---,0.09,VWS V14.01,2013-09-21 19:42:00,
2013-09-21 14:47:00,72.0,54.5,29.73,NNE,31,3.0,13.0,54,0.00,,---,0.09,VWS V14.01,2013-09-21 19:47:00,
2013-09-21 14:52:00,72.4,54.3,29.73,North,350,3.0,13.0,53,0.00,,---,0.09,VWS V14.01,2013-09-21 19:52:00,
2013-09-21 14:57:00,72.6,54.0,29.73,North,355,6.0,13.0,52,0.00,,---,0.09,VWS V14.01,2013-09-21 19:57:00,
2013-09-21 15:02:00,72.6,54.5,29.73,NNW,348,0.0,13.0,53,0.00,,---,0.09,VWS V14.01,2013-09-21 20:02:00,
2013-09-21 15:07:00,72.9,54.3,29.73,NNW,347,1.0,10.0,52,0.00,,---,0.09,VWS V14.01,2013-09-21 20:07:00,
2013-09-21 15:12:00,73.1,55.0,29.73,NW,316,6.0,10.0,53,0.00,,---,0.09,VWS V14.01,2013-09-21 20:12:00,
2013-09-21 15:17:00,72.7,55.1,29.72,NW,325,4.0,10.0,54,0.00,,---,0.09,VWS V14.01,2013-09-21 20:17:00,
2013-09-21 15:22:00,72.9,55.3,29.72,North,355,0.0,10.0,54,0.00,,---,0.09,VWS V14.01,2013-09-21 20:22:00,
2013-09-21 15:27:00,73.4,54.7,29.72,NNW,342,5.0,10.0,52,0.00,,---,0.09,VWS V14.01,2013-09-21 20:27:00,
2013-09-21 15:32:00,73.2,54.5,29.72,NNW,330,5.0,11.0,52,0.00,,---,0.09,VWS V14.01,2013-09-21 20:32:00,
2013-09-21 15:37:00,72.9,54.8,29.72,NW,310,0.0,14.0,53,0.00,,---,0.09,VWS V14.01,2013-09-21 20:37:00,
2013-09-21 15:42:00,73.0,54.4,29.72,North,360,3.0,14.0,52,0.00,,---,0.09,VWS V14.01,2013-09-21 20:42:00,
2013-09-21 15:47:00,73.2,54.5,29.72,North,9,4.0,14.0,52,0.00,,---,0.09,VWS V14.01,2013-09-21 20:47:00,
2013-09-21 15:52:00,73.4,54.7,29.72,WNW,284,6.0,14.0,52,0.00,,---,0.09,VWS V14.01,2013-09-21 20:52:00,
2013-09-21 15:57:00,73.4,54.7,29.72,NW,306,3.0,14.0,52,0.00,,---,0.09,VWS V14.01,2013-09-21 20:57:00,
2013-09-21 16:02:00,73.6,54.9,29.72,NNE,13,0.0,0.0,52,0.00,,---,0.09,VWS V14.01,2013-09-21 21:02:00,
2013-09-21 16:07:00,73.5,54.3,29.72,North,355,0.0,7.0,51,0.00,,---,0.09,VWS V14.01,2013-09-21 21:07:00,
2013-09-21 16:12:00,73.2,52.9,29.72,ENE,78,1.0,10.0,49,0.00,,---,0.09,VWS V14.01,2013-09-21 21:12:00,
2013-09-21 16:17:00,73.0,53.8,29.72,WNW,296,4.0,10.0,51,0.00,,---,0.09,VWS V14.01,2013-09-21 21:17:00,
2013-09-21 16:22:00,73.2,54.0,29.72,NW,319,6.0,11.0,51,0.00,,---,0.09,VWS V14.01,2013-09-21 21:22:00,
2013-09-21 16:27:00,72.8,53.6,29.72,NW,318,5.0,11.0,51,0.00,,---,0.09,VWS V14.01,2013-09-21 21:27:00,
2013-09-21 16:32:00,72.6,53.5,29.72,NNW,344,5.0,5.0,51,0.00,,---,0.09,VWS V14.01,2013-09-21 21:32:00,
2013-09-21 16:37:00,72.6,54.0,29.72,WNW,287,7.0,10.0,52,0.00,,---,0.09,VWS V14.01,2013-09-21 21:37:00,
2013-09-21 16:42:00,72.0,52.9,29.72,North,9,1.0,12.0,51,0.00,,---,0.09,VWS V14.01,2013-09-21 21:42:00,
2013-09-21 16:47:00,71.9,52.8,29.72,NNE,12,0.0,12.0,51,0.00,,---,0.09,VWS V14.01,2013-09-21 21:47:00,
2013-09-21 16:52:00,71.7,53.2,29.72,NNW,340,6.0,13.0,52,0.00,,---,0.09,VWS V14.01,2013-09-21 21:52:00,
2013-09-21 16:57:00,71.5,52.4,29.72,North,360,1.0,13.0,51,0.00,,---,0.09,VWS V14.01,2013-09-21 21:57:00,
2013-09-21 17:02:00,71.5,52.4,29.72,West,273,9.0,9.0,51,0.00,,---,0.09,VWS V14.01,2013-09-21 22:02:00,
2013-09-21 17:07:00,71.5,53.0,29.72,WNW,302,3.0,10.0,52,0.00,,---,0.09,VWS V14.01,2013-09-21 22:07:00,
2013-09-21 17:12:00,71.3,52.8,29.72,NNW,336,1.0,11.0,52,0.00,,---,0.09,VWS V14.01,2013-09-21 22:12:00,
2013-09-21 17:17:00,71.1,52.6,29.72,West,271,2.0,11.0,52,0.00,,---,0.09,VWS V14.01,2013-09-21 22:17:00,
2013-09-21 17:22:00,70.9,53.4,29.72,NNE,22,1.0,11.0,54,0.00,,---,0.09,VWS V14.01,2013-09-21 22:22:00,
2013-09-21 17:27:00,71.0,53.0,29.72,North,355,4.0,11.0,53,0.00,,---,0.09,VWS V14.01,2013-09-21 22:27:00,
2013-09-21 17:32:00,71.1,53.1,29.73,NW,310,7.0,7.0,53,0.00,,---,0.09,VWS V14.01,2013-09-21 22:32:00,
2013-09-21 17:37:00,71.1,53.6,29.73,WNW,298,0.0,10.0,54,0.00,,---,0.09,VWS V14.01,2013-09-21 22:37:00,
2013-09-21 17:42:00,70.9,52.9,29.73,North,5,0.0,10.0,53,0.00,,---,0.09,VWS V14.01,2013-09-21 22:42:00,
2013-09-21 17:47:00,70.7,53.3,29.73,NNW,331,0.0,10.0,54,0.00,,---,0.09,VWS V14.01,2013-09-21 22:47:00,
2013-09-21 17:52:00,70.5,53.6,29.73,NW,306,2.0,10.0,55,0.00,,---,0.09,VWS V14.01,2013-09-21 22:52:00,
2013-09-21 17:57:00,70.2,52.8,29.73,North,9,1.0,10.0,54,0.00,,---,0.09,VWS V14.01,2013-09-21 22:57:00,
2013-09-21 18:02:00,70.1,52.7,29.73,North,355,0.0,2.0,54,0.00,,---,0.09,VWS V14.01,2013-09-21 23:02:00,
2013-09-21 18:07:00,69.9,53.0,29.73,NW,319,0.0,2.0,55,0.00,,---,0.09,VWS V14.01,2013-09-21 23:07:00,
2013-09-21 18:12:00,69.8,53.9,29.73,NW,321,0.0,2.0,57,0.00,,---,0.09,VWS V14.01,2013-09-21 23:12:00,
2013-09-21 18:17:00,69.5,53.6,29.73,NNW,342,3.0,3.0,57,0.00,,---,0.09,VWS V14.01,2013-09-21 23:17:00,
2013-09-21 18:22:00,69.2,54.3,29.73,North,355,0.0,3.0,59,0.00,,---,0.09,VWS V14.01,2013-09-21 23:22:00,
2013-09-21 18:27:00,68.9,53.5,29.73,North,355,0.0,3.0,58,0.00,,---,0.09,VWS V14.01,2013-09-21 23:27:00,
2013-09-21 18:32:00,68.6,53.7,29.74,North,355,0.0,0.0,59,0.00,,---,0.09,VWS V14.01,2013-09-21 23:32:00,
2013-09-21 18:37:00,68.3,54.3,29.74,North,355,0.0,0.0,61,0.00,,---,0.09,VWS V14.01,2013-09-21 23:37:00,
2013-09-21 18:42:00,67.8,56.5,29.74,North,355,0.0,1.0,67,0.00,,---,0.09,VWS V14.01,2013-09-21 23:42:00,
2013-09-21 18:47:00,67.0,56.5,29.74,North,355,0.0,1.0,69,0.00,,---,0.09,VWS V14.01,2013-09-21 23:47:00,
2013-09-21 18:52:00,66.2,56.1,29.74,North,355,0.0,1.0,70,0.00,,---,0.09,VWS V14.01,2013-09-21 23:52:00,
2013-09-21 18:57:00,65.3,55.7,29.74,North,355,0.0,1.0,71,0.00,,---,0.09,VWS V14.01,2013-09-21 23:57:00,
2013-09-21 19:02:00,64.5,55.3,29.74,North,355,0.0,0.0,72,0.00,,---,0.09,VWS V14.01,2013-09-22 00:02:00,
2013-09-21 19:07:00,63.8,55.4,29.74,North,355,0.0,0.0,74,0.00,,---,0.09,VWS V14.01,2013-09-22 00:07:00,
2013-09-21 19:12:00,63.0,55.3,29.74,North,355,0.0,0.0,76,0.00,,---,0.09,VWS V14.01,2013-09-22 00:12:00,
2013-09-21 19:17:00,62.3,55.0,29.75,North,355,0.0,0.0,77,0.00,,---,0.09,VWS V14.01,2013-09-22 00:17:00,
2013-09-21 19:22:00,61.8,55.2,29.75,North,355,0.0,0.0,79,0.00,,---,0.09,VWS V14.01,2013-09-22 00:22:00,
2013-09-21 19:27:00,61.4,55.2,29.75,North,355,0.0,0.0,80,0.00,,---,0.09,VWS V14.01,2013-09-22 00:27:00,
2013-09-21 19:32:00,61.1,55.2,29.75,North,355,0.0,0.0,81,0.00,,---,0.09,VWS V14.01,2013-09-22 00:32:00,
2013-09-21 19:37:00,60.8,55.3,29.75,North,355,0.0,0.0,82,0.00,,---,0.09,VWS V14.01,2013-09-22 00:37:00,
2013-09-21 19:42:00,60.5,55.3,29.75,North,355,0.0,0.0,83,0.00,,---,0.09,VWS V14.01,2013-09-22 00:42:00,
2013-09-21 19:47:00,60.2,55.0,29.75,North,355,0.0,0.0,83,0.00,,---,0.09,VWS V14.01,2013-09-22 00:47:00,
2013-09-21 19:52:00,59.9,55.1,29.75,North,355,0.0,0.0,84,0.00,,---,0.09,VWS V14.01,2013-09-22 00:52:00,
2013-09-21 19:57:00,59.6,55.1,29.75,North,355,0.0,0.0,85,0.00,,---,0.09,VWS V14.01,2013-09-22 00:57:00,
2013-09-21 20:02:00,59.4,55.2,29.76,North,355,0.0,0.0,86,0.00,,---,0.09,VWS V14.01,2013-09-22 01:02:00,
2013-09-21 20:07:00,59.1,54.9,29.76,North,355,0.0,0.0,86,0.00,,---,0.09,VWS V14.01,2013-09-22 01:07:00,
2013-09-21 20:12:00,59.0,55.1,29.76,North,355,0.0,0.0,87,0.00,,---,0.09,VWS V14.01,2013-09-22 01:12:00,
2013-09-21 20:17:00,59.0,55.1,29.76,North,355,0.0,0.0,87,0.00,,---,0.09,VWS V14.01,2013-09-22 01:17:00,
2013-09-21 20:22:00,58.7,54.8,29.76,North,355,0.0,0.0,87,0.00,,---,0.09,VWS V14.01,2013-09-22 01:22:00,
2013-09-21 20:27:00,58.6,55.1,29.76,North,355,0.0,0.0,88,0.00,,---,0.09,VWS V14.01,2013-09-22 01:27:00,
2013-09-21 20:32:00,58.5,55.0,29.76,North,355,0.0,0.0,88,0.00,,---,0.09,VWS V14.01,2013-09-22 01:32:00,
2013-09-21 20:37:00,58.4,54.9,29.76,North,355,0.0,0.0,88,0.00,,---,0.09,VWS V14.01,2013-09-22 01:37:00,
2013-09-21 20:42:00,58.2,54.7,29.76,North,355,0.0,0.0,88,0.00,,---,0.09,VWS V14.01,2013-09-22 01:42:00,
2013-09-21 20:47:00,58.0,54.5,29.77,North,355,0.0,0.0,88,0.00,,---,0.09,VWS V14.01,2013-09-22 01:47:00,
2013-09-21 20:52:00,57.8,54.6,29.77,North,355,0.0,0.0,89,0.00,,---,0.09,VWS V14.01,2013-09-22 01:52:00,
2013-09-21 20:57:00,57.7,54.5,29.77,North,355,0.0,0.0,89,0.00,,---,0.09,VWS V14.01,2013-09-22 01:57:00,
2013-09-21 21:02:00,57.5,54.3,29.77,North,355,0.0,0.0,89,0.00,,---,0.09,VWS V14.01,2013-09-22 02:02:00,
2013-09-21 21:07:00,57.3,54.4,29.77,North,355,0.0,0.0,90,0.00,,---,0.09,VWS V14.01,2013-09-22 02:07:00,
2013-09-21 21:12:00,57.2,54.3,29.77,North,355,0.0,0.0,90,0.00,,---,0.09,VWS V14.01,2013-09-22 02:12:00,
2013-09-21 21:17:00,57.1,54.2,29.77,North,355,0.0,0.0,90,0.00,,---,0.09,VWS V14.01,2013-09-22 02:17:00,
2013-09-21 21:22:00,56.9,54.0,29.77,North,355,0.0,0.0,90,0.00,,---,0.09,VWS V14.01,2013-09-22 02:22:00,
2013-09-21 21:27:00,56.8,53.9,29.77,North,355,0.0,0.0,90,0.00,,---,0.09,VWS V14.01,2013-09-22 02:27:00,
2013-09-21 21:32:00,56.6,54.0,29.77,North,355,0.0,0.0,91,0.00,,---,0.09,VWS V14.01,2013-09-22 02:32:00,
2013-09-21 21:37:00,56.6,54.0,29.77,North,355,0.0,0.0,91,0.00,,---,0.09,VWS V14.01,2013-09-22 02:37:00,
2013-09-21 21:42:00,56.4,53.8,29.77,North,355,0.0,0.0,91,0.00,,---,0.09,VWS V14.01,2013-09-22 02:42:00,
2013-09-21 21:47:00,56.3,53.7,29.77,North,355,0.0,0.0,91,0.00,,---,0.09,VWS V14.01,2013-09-22 02:47:00,
2013-09-21 21:52:00,56.2,53.6,29.77,North,355,0.0,0.0,91,0.00,,---,0.09,VWS V14.01,2013-09-22 02:52:00,
2013-09-21 21:57:00,56.0,53.4,29.77,North,355,0.0,0.0,91,0.00,,---,0.09,VWS V14.01,2013-09-22 02:57:00,
2013-09-21 22:02:00,55.9,53.3,29.77,North,355,0.0,0.0,91,0.00,,---,0.09,VWS V14.01,2013-09-22 03:02:00,
2013-09-21 22:07:00,55.8,53.2,29.77,North,355,0.0,0.0,91,0.00,,---,0.09,VWS V14.01,2013-09-22 03:07:00,
2013-09-21 22:12:00,55.6,53.3,29.77,North,355,0.0,0.0,92,0.00,,---,0.09,VWS V14.01,2013-09-22 03:12:00,
2013-09-21 22:17:00,55.5,53.2,29.77,North,355,0.0,0.0,92,0.00,,---,0.09,VWS V14.01,2013-09-22 03:17:00,
2013-09-21 22:22:00,55.4,53.1,29.77,North,355,0.0,0.0,92,0.00,,---,0.09,VWS V14.01,2013-09-22 03:22:00,
2013-09-21 22:27:00,55.3,53.0,29.77,North,355,0.0,0.0,92,0.00,,---,0.09,VWS V14.01,2013-09-22 03:27:00,
2013-09-21 22:32:00,55.1,52.8,29.77,North,355,0.0,0.0,92,0.00,,---,0.09,VWS V14.01,2013-09-22 03:32:00,
2013-09-21 22:37:00,55.0,52.7,29.77,North,355,0.0,0.0,92,0.00,,---,0.09,VWS V14.01,2013-09-22 03:37:00,
2013-09-21 22:42:00,54.9,52.6,29.77,North,355,0.0,0.0,92,0.00,,---,0.09,VWS V14.01,2013-09-22 03:42:00,
2013-09-21 22:47:00,54.8,52.5,29.77,North,355,0.0,0.0,92,0.00,,---,0.09,VWS V14.01,2013-09-22 03:47:00,
2013-09-21 22:52:00,54.7,52.4,29.77,North,355,0.0,0.0,92,0.00,,---,0.09,VWS V14.01,2013-09-22 03:52:00,
2013-09-21 22:57:00,54.6,52.6,29.77,North,355,0.0,0.0,93,0.00,,---,0.09,VWS V14.01,2013-09-22 03:57:00,
2013-09-21 23:01:00,54.6,52.6,29.77,North,355,0.0,0.0,93,0.00,,---,0.09,VWS V14.01,2013-09-22 04:01:00,
2013-09-21 23:03:00,54.5,52.5,29.77,North,355,0.0,0.0,93,0.00,,---,0.09,VWS V14.01,2013-09-22 04:03:00,
2013-09-21 23:08:00,54.5,52.5,29.77,North,355,0.0,0.0,93,0.00,,---,0.09,VWS V14.01,2013-09-22 04:08:00,
2013-09-21 23:13:00,54.4,52.4,29.77,North,355,0.0,0.0,93,0.00,,---,0.09,VWS V14.01,2013-09-22 04:13:00,
2013-09-21 23:18:00,54.3,52.3,29.77,North,355,0.0,0.0,93,0.00,,---,0.09,VWS V14.01,2013-09-22 04:18:00,
2013-09-21 23:23:00,54.3,52.3,29.77,North,355,0.0,0.0,93,0.00,,---,0.09,VWS V14.01,2013-09-22 04:23:00,
2013-09-21 23:28:00,54.2,52.2,29.77,North,355,0.0,0.0,93,0.00,,---,0.09,VWS V14.01,2013-09-22 04:28:00,
2013-09-21 23:33:00,54.1,52.1,29.77,North,355,0.0,0.0,93,0.00,,---,0.09,VWS V14.01,2013-09-22 04:33:00,
2013-09-21 23:38:00,54.1,52.1,29.77,North,355,0.0,0.0,93,0.00,,---,0.09,VWS V14.01,2013-09-22 04:38:00,
2013-09-21 23:43:00,54.0,52.0,29.77,North,355,0.0,0.0,93,0.00,,---,0.09,VWS V14.01,2013-09-22 04:43:00,
2013-09-21 23:48:00,54.0,52.3,29.77,North,355,0.0,0.0,94,0.00,,---,0.09,VWS V14.01,2013-09-22 04:48:00,
2013-09-21 23:53:00,53.9,51.9,29.77,North,355,0.0,0.0,93,0.00,,---,0.09,VWS V14.01,2013-09-22 04:53:00,
2013-09-21 23:58:00,53.8,51.8,29.77,North,355,0.0,0.0,93,0.00,,---,0.09,VWS V14.01,2013-09-22 04:58:00,